Time;durP1;ratioP1;P1;durP2;ratioP2;P2;SDS_P1;SDS_P2;PMS_P1;PMS_P2;Temp;Humidity;BMP_temperature;BMP_pressure;BME280_temperature;BME280_humidity;BME280_pressure;Samples;Min_cycle;Max_cycle;Signal;HPM_P1;HPM_P2
2021/03/02 00:00:00;;;;;;;16.63;8.85;;;2.00;99.90;;;;;;5076053;28;20051;-72
2021/03/02 00:02:27;;;;;;;15.40;7.15;;;2.00;99.90;;;;;;5084011;28;20037;-72
2021/03/02 00:04:53;;;;;;;13.55;7.07;;;2.00;99.90;;;;;;5078369;28;20048;-72
2021/03/02 00:07:20;;;;;;;12.05;6.28;;;2.00;99.90;;;;;;5072014;28;20393;-72
2021/03/02 00:09:47;;;;;;;12.18;6.28;;;1.90;99.90;;;;;;5072002;28;20044;-72
2021/03/02 00:12:14;;;;;;;16.25;7.47;;;1.90;99.90;;;;;;5071663;28;20103;-70
2021/03/02 00:14:40;;;;;;;12.65;7.05;;;1.90;99.90;;;;;;5071725;28;20032;-72
2021/03/02 00:17:31;;;;;;;15.05;7.25;;;1.90;99.90;;;;;;5071782;28;20029;-72
2021/03/02 00:20:09;;;;;;;15.35;7.07;;;1.80;99.90;;;;;;5076079;28;20492;-72
2021/03/02 00:22:53;;;;;;;13.85;7.68;;;1.80;99.90;;;;;;5088068;28;20036;-72
2021/03/02 00:25:22;;;;;;;14.68;6.43;;;1.80;99.90;;;;;;5075882;28;20517;-71
2021/03/02 00:27:51;;;;;;;13.75;6.90;;;1.70;99.90;;;;;;5075108;28;20033;-71
2021/03/02 00:30:18;;;;;;;18.92;7.15;;;1.70;99.90;;;;;;5084856;28;20027;-71
2021/03/02 00:32:45;;;;;;;15.35;6.57;;;1.70;99.90;;;;;;5083223;28;20032;-72
2021/03/02 00:35:12;;;;;;;15.13;7.28;;;1.60;99.90;;;;;;5078986;28;20044;-72
2021/03/02 00:37:38;;;;;;;16.45;7.88;;;1.70;99.90;;;;;;5090181;28;20032;-72
2021/03/02 00:40:05;;;;;;;14.13;7.72;;;1.70;99.90;;;;;;5073128;28;20044;-72
2021/03/02 00:42:31;;;;;;;15.13;7.00;;;1.70;99.90;;;;;;5077845;28;20504;-72
2021/03/02 00:44:58;;;;;;;14.35;7.03;;;1.50;99.90;;;;;;5090677;28;20029;-72
2021/03/02 00:47:24;;;;;;;16.75;7.97;;;1.50;99.90;;;;;;5075064;28;20032;-71
2021/03/02 00:49:50;;;;;;;12.70;6.72;;;1.50;99.90;;;;;;5075018;28;20048;-72
2021/03/02 00:52:17;;;;;;;13.82;7.90;;;1.50;99.90;;;;;;5075567;28;20051;-71
2021/03/02 00:54:43;;;;;;;13.10;6.20;;;1.50;99.90;;;;;;5075412;28;20047;-71
2021/03/02 00:57:09;;;;;;;12.90;7.50;;;1.40;99.90;;;;;;5074577;28;20401;-71
2021/03/02 00:59:36;;;;;;;10.40;5.82;;;1.30;99.90;;;;;;5078844;28;20385;-71
2021/03/02 01:02:02;;;;;;;10.70;5.80;;;1.40;99.90;;;;;;5088901;28;20048;-71
2021/03/02 01:04:29;;;;;;;10.52;5.72;;;1.30;99.90;;;;;;5075048;28;20040;-71
2021/03/02 01:06:57;;;;;;;9.95;5.88;;;1.30;99.90;;;;;;5073593;28;20405;-71
2021/03/02 01:09:28;;;;;;;9.23;5.57;;;1.30;99.90;;;;;;5076153;28;20125;-71
2021/03/02 01:11:54;;;;;;;9.93;4.88;;;1.30;99.90;;;;;;5088213;28;20033;-71
2021/03/02 01:14:21;;;;;;;16.73;6.00;;;1.30;99.90;;;;;;5073825;28;20048;-71
2021/03/02 01:16:47;;;;;;;10.73;6.00;;;1.10;99.90;;;;;;5089013;28;20055;-71
2021/03/02 01:19:13;;;;;;;15.13;6.63;;;1.10;99.90;;;;;;5077592;28;20047;-71
2021/03/02 01:21:40;;;;;;;11.02;6.10;;;1.10;99.90;;;;;;5074664;28;20040;-72
2021/03/02 01:24:06;;;;;;;12.57;6.60;;;1.10;99.90;;;;;;5074487;28;20037;-72
2021/03/02 01:26:32;;;;;;;14.43;6.55;;;1.00;99.90;;;;;;5073782;28;20458;-71
2021/03/02 01:28:59;;;;;;;14.95;7.50;;;1.00;99.90;;;;;;5074259;28;20051;-72
2021/03/02 01:31:25;;;;;;;14.65;7.38;;;1.00;99.90;;;;;;5074428;28;20033;-72
2021/03/02 01:33:51;;;;;;;15.32;7.43;;;1.00;99.90;;;;;;5083301;28;20032;-72
2021/03/02 01:36:17;;;;;;;16.60;7.85;;;0.90;99.90;;;;;;5088546;28;20040;-71
2021/03/02 01:38:45;;;;;;;12.80;7.53;;;0.80;99.90;;;;;;5074202;28;20045;-71
2021/03/02 01:41:12;;;;;;;11.63;6.80;;;0.80;99.90;;;;;;5086071;28;20029;-71
2021/03/02 01:43:38;;;;;;;14.60;7.38;;;0.70;99.90;;;;;;5074594;28;20036;-71
2021/03/02 01:46:06;;;;;;;14.20;7.68;;;0.70;99.90;;;;;;5073603;28;20039;-71
2021/03/02 01:48:37;;;;;;;16.27;9.05;;;0.70;99.90;;;;;;5073803;28;20036;-71
2021/03/02 01:51:04;;;;;;;13.70;6.53;;;0.60;99.90;;;;;;5074045;28;20410;-71
2021/03/02 01:53:30;;;;;;;14.68;7.25;;;0.60;99.90;;;;;;5092855;28;20047;-72
2021/03/02 01:55:57;;;;;;;14.45;6.70;;;0.50;99.90;;;;;;5076168;28;20106;-72
2021/03/02 01:58:25;;;;;;;14.57;7.32;;;0.50;99.90;;;;;;5087369;28;20035;-72
2021/03/02 02:00:54;;;;;;;16.55;7.03;;;0.50;99.90;;;;;;5078977;28;20625;-72
2021/03/02 02:03:24;;;;;;;17.33;8.60;;;0.60;99.90;;;;;;5093707;28;20028;-72
2021/03/02 02:06:05;;;;;;;18.05;8.60;;;0.60;99.90;;;;;;5084169;28;20044;-72
2021/03/02 02:08:53;;;;;;;;;;;0.50;99.90;;;;;;5074320;28;20371;-71
2021/03/02 02:11:39;;;;;;;16.65;7.82;;;0.40;99.90;;;;;;5073357;28;20384;-72
2021/03/02 02:14:26;;;;;;;14.95;7.43;;;0.40;99.90;;;;;;5082911;28;20063;-71
2021/03/02 02:16:56;;;;;;;13.20;7.50;;;0.40;99.90;;;;;;5076142;28;20032;-72
2021/03/02 02:19:35;;;;;;;17.57;6.57;;;0.30;99.90;;;;;;5073430;28;20039;-72
2021/03/02 02:22:08;;;;;;;17.90;7.20;;;0.20;99.90;;;;;;5072584;28;20036;-72
2021/03/02 02:25:01;;;;;;;14.38;7.82;;;0.20;99.90;;;;;;5073352;28;20408;-72
2021/03/02 02:27:30;;;;;;;15.63;7.55;;;0.10;99.90;;;;;;5069646;28;20056;-72
2021/03/02 02:29:57;;;;;;;14.20;7.00;;;0.10;99.90;;;;;;5081147;28;20024;-72
2021/03/02 02:32:25;;;;;;;15.93;7.65;;;0.10;99.90;;;;;;5078958;28;20033;-71
2021/03/02 02:34:54;;;;;;;15.05;7.57;;;0.20;99.90;;;;;;5073185;28;20028;-72
2021/03/02 02:37:22;;;;;;;15.77;7.20;;;0.10;99.90;;;;;;5073147;28;20067;-72
2021/03/02 02:39:50;;;;;;;16.15;7.45;;;0.10;99.90;;;;;;5089557;28;20244;-72
2021/03/02 02:42:17;;;;;;;14.95;7.53;;;0.10;99.90;;;;;;5073730;28;20453;-72
2021/03/02 02:44:43;;;;;;;14.20;7.45;;;0.10;99.90;;;;;;5072278;28;20028;-72
2021/03/02 02:47:10;;;;;;;13.93;6.75;;;0.10;99.90;;;;;;5072802;28;20036;-72
2021/03/02 02:49:36;;;;;;;15.52;7.40;;;0.10;99.90;;;;;;5072697;28;20041;-72
2021/03/02 02:52:03;;;;;;;17.60;7.45;;;0.00;99.90;;;;;;5072425;28;20036;-71
2021/03/02 02:54:29;;;;;;;16.55;7.47;;;0.00;99.90;;;;;;5072561;28;20033;-72
2021/03/02 02:56:57;;;;;;;16.02;7.55;;;0.00;99.90;;;;;;5081533;28;20039;-72
2021/03/02 02:59:34;;;;;;;17.90;8.20;;;0.00;99.90;;;;;;5072943;28;20032;-72
2021/03/02 03:02:03;;;;;;;15.38;7.60;;;-0.10;99.90;;;;;;5075866;28;20044;-73
2021/03/02 03:04:45;;;;;;;18.85;8.38;;;-0.10;99.90;;;;;;5083087;28;20028;-72
2021/03/02 03:07:38;;;;;;;26.80;10.63;;;-0.10;99.90;;;;;;5071913;28;20059;-72
2021/03/02 03:10:07;;;;;;;24.20;11.82;;;-0.20;99.90;;;;;;5072346;28;20031;-72
2021/03/02 03:12:39;;;;;;;21.83;10.10;;;-0.20;99.90;;;;;;5072731;28;20032;-72
2021/03/02 03:15:08;;;;;;;22.63;11.80;;;-0.20;99.90;;;;;;5072468;28;20032;-72
2021/03/02 03:17:44;;;;;;;19.00;9.18;;;-0.20;99.90;;;;;;5072700;28;20466;-72
2021/03/02 03:20:11;;;;;;;15.82;8.38;;;-0.20;99.90;;;;;;5071987;28;20024;-72
2021/03/02 03:22:39;;;;;;;19.20;9.45;;;-0.30;99.90;;;;;;5072900;28;20480;-72
2021/03/02 03:25:06;;;;;;;18.88;9.35;;;-0.30;99.90;;;;;;5071992;28;20377;-72
2021/03/02 03:27:35;;;;;;;18.77;8.43;;;-0.20;99.90;;;;;;5072375;28;20033;-72
2021/03/02 03:30:02;;;;;;;19.45;9.48;;;-0.30;99.90;;;;;;5072161;28;20051;-72
2021/03/02 03:32:30;;;;;;;24.50;9.68;;;-0.20;99.90;;;;;;5072399;28;20036;-73
2021/03/02 03:35:00;;;;;;;20.05;8.90;;;-0.30;99.90;;;;;;5071945;28;20036;-73
2021/03/02 03:37:26;;;;;;;30.15;9.13;;;-0.30;99.90;;;;;;5072474;28;20039;-72
2021/03/02 03:39:52;;;;;;;16.55;8.60;;;-0.40;99.90;;;;;;5072366;28;20489;-72
2021/03/02 03:42:18;;;;;;;17.10;8.05;;;-0.40;99.90;;;;;;5071709;28;20036;-72
2021/03/02 03:44:44;;;;;;;20.80;8.77;;;-0.40;99.90;;;;;;5072413;28;20036;-72
2021/03/02 03:47:10;;;;;;;17.40;7.93;;;-0.40;99.90;;;;;;5071707;28;20063;-72
2021/03/02 03:49:37;;;;;;;24.02;9.15;;;-0.50;99.90;;;;;;5079906;28;20040;-72
2021/03/02 03:52:07;;;;;;;17.88;9.23;;;-0.50;99.90;;;;;;5079227;28;20051;-72
2021/03/02 03:54:34;;;;;;;17.25;8.10;;;-0.50;99.90;;;;;;5086001;28;20037;-73
2021/03/02 03:57:01;;;;;;;19.45;8.88;;;-0.50;99.90;;;;;;5083869;28;20098;-72
2021/03/02 03:59:28;;;;;;;18.95;8.23;;;-0.60;99.90;;;;;;5094911;28;20397;-73
2021/03/02 04:01:55;;;;;;;21.42;9.15;;;-0.60;99.90;;;;;;5087823;28;20036;-72
2021/03/02 04:04:24;;;;;;;16.58;8.48;;;-0.60;99.90;;;;;;5084486;28;20028;-72
2021/03/02 04:06:51;;;;;;;18.45;8.75;;;-0.70;99.90;;;;;;5096502;28;20063;-73
2021/03/02 04:09:17;;;;;;;16.08;7.72;;;-0.70;99.90;;;;;;5082462;28;20032;-73
2021/03/02 04:11:44;;;;;;;19.17;8.32;;;-0.70;99.90;;;;;;5083679;28;20028;-72
2021/03/02 04:14:10;;;;;;;21.33;10.57;;;-0.70;99.90;;;;;;5076147;28;20041;-72
2021/03/02 04:16:37;;;;;;;20.75;9.77;;;-0.70;99.90;;;;;;5091830;28;20477;-72
2021/03/02 04:19:05;;;;;;;20.90;11.20;;;-0.70;99.90;;;;;;5075711;28;20760;-73
2021/03/02 04:21:31;;;;;;;21.45;10.90;;;-0.70;99.90;;;;;;5075855;28;20451;-72
2021/03/02 04:23:58;;;;;;;19.48;10.10;;;-0.70;99.90;;;;;;5075780;28;20385;-72
2021/03/02 04:26:24;;;;;;;18.10;9.40;;;-0.70;99.90;;;;;;5075894;28;20048;-72
2021/03/02 04:28:50;;;;;;;25.63;11.40;;;-0.90;99.90;;;;;;5075913;28;20028;-72
2021/03/02 04:31:17;;;;;;;23.65;11.90;;;-0.90;99.90;;;;;;5075524;28;20378;-72
2021/03/02 04:33:43;;;;;;;20.95;10.23;;;-0.90;99.90;;;;;;5075456;28;20036;-72
2021/03/02 04:36:09;;;;;;;23.67;10.57;;;-0.80;99.90;;;;;;5090686;28;20047;-72
2021/03/02 04:38:36;;;;;;;21.80;10.45;;;-0.80;99.90;;;;;;5077061;28;20052;-72
2021/03/02 04:41:02;;;;;;;23.08;10.63;;;-0.80;99.90;;;;;;5075271;28;20389;-72
2021/03/02 04:43:28;;;;;;;22.95;9.77;;;-0.90;99.90;;;;;;5074892;28;20044;-72
2021/03/02 04:45:54;;;;;;;17.77;9.40;;;-0.80;99.90;;;;;;5076267;28;20493;-72
2021/03/02 04:48:21;;;;;;;23.23;9.82;;;-0.90;99.90;;;;;;5093250;28;20453;-72
2021/03/02 04:50:47;;;;;;;21.48;9.18;;;-0.90;99.90;;;;;;5075399;28;20047;-72
2021/03/02 04:53:13;;;;;;;24.20;9.65;;;-0.90;99.90;;;;;;5084769;28;20382;-72
2021/03/02 04:55:39;;;;;;;22.60;10.07;;;-1.00;99.90;;;;;;5087009;28;20043;-72
2021/03/02 04:58:06;;;;;;;27.20;12.88;;;-1.10;99.90;;;;;;5080547;28;20072;-73
2021/03/02 05:00:32;;;;;;;25.10;10.88;;;-1.00;99.90;;;;;;5080475;28;20461;-72
2021/03/02 05:02:58;;;;;;;24.40;10.13;;;-1.00;99.90;;;;;;5082237;28;20040;-72
2021/03/02 05:05:24;;;;;;;25.02;10.80;;;-1.00;99.90;;;;;;5074966;28;20036;-72
2021/03/02 05:07:50;;;;;;;20.13;10.18;;;-1.10;99.90;;;;;;5074140;28;20040;-72
2021/03/02 05:10:17;;;;;;;22.20;11.05;;;-1.10;99.90;;;;;;5074417;28;20241;-72
2021/03/02 05:12:43;;;;;;;21.45;10.20;;;-1.10;99.90;;;;;;5074555;28;20037;-72
2021/03/02 05:15:10;;;;;;;33.70;12.07;;;-1.10;99.90;;;;;;5074471;28;20037;-72
2021/03/02 05:17:36;;;;;;;29.75;12.98;;;-1.10;99.90;;;;;;5081798;28;20032;-72
2021/03/02 05:20:04;;;;;;;26.67;12.50;;;-0.90;99.90;;;;;;5074966;28;20052;-73
2021/03/02 05:22:30;;;;;;;28.48;11.80;;;-1.00;99.90;;;;;;5085742;28;20401;-72
2021/03/02 05:24:56;;;;;;;28.00;12.23;;;-1.00;99.90;;;;;;5075459;28;20028;-72
2021/03/02 05:27:23;;;;;;;22.10;11.27;;;-1.20;99.90;;;;;;5074294;28;20032;-72
2021/03/02 05:29:49;;;;;;;22.58;12.13;;;-1.20;99.90;;;;;;5078816;28;20039;-72
2021/03/02 05:32:15;;;;;;;28.08;12.70;;;-1.20;99.90;;;;;;5093159;28;20039;-72
2021/03/02 05:34:41;;;;;;;27.13;14.13;;;-1.10;99.90;;;;;;5088847;28;20033;-72
2021/03/02 05:37:07;;;;;;;26.80;12.27;;;-1.10;99.90;;;;;;5073930;28;20504;-72
2021/03/02 05:39:33;;;;;;;25.63;12.52;;;-1.20;99.90;;;;;;5090886;28;20044;-72
2021/03/02 05:42:00;;;;;;;29.80;12.95;;;-1.20;99.90;;;;;;5077140;28;20044;-72
2021/03/02 05:44:27;;;;;;;27.20;12.63;;;-1.20;99.90;;;;;;5074242;28;20029;-72
2021/03/02 05:46:54;;;;;;;30.13;12.05;;;-1.20;99.90;;;;;;5073904;28;20051;-72
2021/03/02 05:49:21;;;;;;;21.98;10.50;;;-1.30;99.90;;;;;;5073603;28;20362;-72
2021/03/02 05:51:48;;;;;;;23.50;11.80;;;-1.40;99.90;;;;;;5073597;28;20040;-72
2021/03/02 05:54:16;;;;;;;27.20;12.90;;;-1.40;99.90;;;;;;5073826;28;20386;-72
2021/03/02 05:56:42;;;;;;;23.20;10.68;;;-1.40;99.90;;;;;;5074045;28;20043;-72
2021/03/02 05:59:09;;;;;;;25.95;11.80;;;-1.40;99.90;;;;;;5087439;28;20024;-72
2021/03/02 06:01:36;;;;;;;26.10;12.05;;;-1.50;99.90;;;;;;5074148;28;20363;-72
2021/03/02 06:04:03;;;;;;;29.27;12.45;;;-1.40;99.90;;;;;;5073566;28;20036;-73
2021/03/02 06:06:30;;;;;;;31.25;12.23;;;-1.30;99.90;;;;;;5087818;28;20043;-72
2021/03/02 06:08:56;;;;;;;25.05;12.43;;;-1.30;99.90;;;;;;5078226;28;20032;-73
2021/03/02 06:11:26;;;;;;;26.58;13.07;;;-1.30;99.90;;;;;;5073624;28;20382;-72
2021/03/02 06:13:53;;;;;;;29.08;12.35;;;-1.30;99.90;;;;;;5073551;28;20040;-74
2021/03/02 06:16:20;;;;;;;27.33;12.95;;;-1.40;99.90;;;;;;5073356;28;20070;-74
2021/03/02 06:18:55;;;;;;;25.05;11.70;;;-1.30;99.90;;;;;;5083259;28;20039;-74
2021/03/02 06:21:21;;;;;;;28.88;13.43;;;-1.20;99.90;;;;;;5078956;28;20031;-74
2021/03/02 06:23:53;;;;;;;28.23;12.93;;;-1.20;99.90;;;;;;5083603;28;20033;-74
2021/03/02 06:26:24;;;;;;;26.58;12.88;;;-1.20;99.90;;;;;;5073342;28;20036;-74
2021/03/02 06:29:12;;;;;;;28.60;12.27;;;-1.20;99.90;;;;;;5073702;28;20043;-74
2021/03/02 06:31:45;;;;;;;28.83;13.48;;;-1.20;99.90;;;;;;5075165;28;20029;-73
2021/03/02 06:34:19;;;;;;;29.30;13.82;;;-1.10;99.90;;;;;;5084888;28;20036;-74
2021/03/02 06:36:54;;;;;;;26.88;12.90;;;-1.10;99.90;;;;;;5073391;28;20037;-74
2021/03/02 06:39:31;;;;;;;35.53;14.35;;;-1.10;99.90;;;;;;5072820;28;20063;-74
2021/03/02 06:42:18;;;;;;;27.55;13.13;;;-1.00;99.90;;;;;;5072915;28;20035;-75
2021/03/02 06:44:49;;;;;;;28.63;13.95;;;-0.90;99.90;;;;;;5078923;28;20046;-75
2021/03/02 06:47:31;;;;;;;30.70;12.57;;;-0.90;99.90;;;;;;5089166;28;20035;-74
2021/03/02 06:49:57;;;;;;;;;;;-0.80;99.90;;;;;;5074009;28;20025;-74
2021/03/02 06:52:23;;;;;;;26.98;11.88;;;-0.80;99.90;;;;;;5080936;28;19908;-75
2021/03/02 06:54:50;;;;;;;25.30;12.85;;;-0.70;99.90;;;;;;5074570;28;20040;-72
2021/03/02 06:57:24;;;;;;;26.92;11.98;;;-0.30;99.90;;;;;;5073615;28;20040;-73
2021/03/02 07:00:00;;;;;;;23.02;10.48;;;0.80;99.90;;;;;;5073146;28;20028;-73
2021/03/02 07:02:40;;;;;;;20.45;11.27;;;2.70;99.90;;;;;;5081090;28;20047;-74
2021/03/02 07:05:07;;;;;;;18.50;9.20;;;4.00;99.90;;;;;;5079478;28;20028;-74
2021/03/02 07:07:33;;;;;;;12.23;7.95;;;4.40;99.90;;;;;;5092808;28;20043;-73
2021/03/02 07:10:03;;;;;;;16.25;8.30;;;4.70;99.90;;;;;;5072781;28;20033;-73
2021/03/02 07:12:34;;;;;;;15.75;9.50;;;4.80;98.70;;;;;;5077080;28;20032;-73
2021/03/02 07:15:01;;;;;;;;;;;5.20;98.30;;;;;;5074429;28;20032;-72
2021/03/02 07:17:27;;;;;;;11.75;8.00;;;5.50;95.00;;;;;;5079644;28;19915;-74
2021/03/02 07:19:57;;;;;;;12.75;9.50;;;5.50;94.00;;;;;;5072814;28;20029;-76
2021/03/02 07:22:25;;;;;;;14.45;8.38;;;5.80;93.50;;;;;;5092313;28;20039;-76
2021/03/02 07:24:57;;;;;;;11.30;8.52;;;6.60;92.20;;;;;;5073715;28;20033;-75
2021/03/02 07:27:23;;;;;;;13.95;9.20;;;6.70;89.30;;;;;;5072105;28;20056;-75
2021/03/02 07:29:50;;;;;;;10.68;8.00;;;7.20;88.70;;;;;;5087455;28;20028;-75
2021/03/02 07:32:18;;;;;;;13.05;8.90;;;7.60;85.50;;;;;;5075646;28;20028;-76
2021/03/02 07:34:48;;;;;;;12.68;8.07;;;8.30;83.40;;;;;;5091157;28;20036;-76
2021/03/02 07:37:25;;;;;;;13.88;8.48;;;8.40;81.50;;;;;;5073172;28;20474;-75
2021/03/02 07:40:10;;;;;;;14.07;8.02;;;7.90;84.10;;;;;;5088068;28;20528;-76
2021/03/02 07:42:37;;;;;;;16.20;11.30;;;8.10;85.30;;;;;;5072802;28;20151;-75
2021/03/02 07:45:28;;;;;;;10.27;7.55;;;7.90;85.20;;;;;;5072122;28;20028;-76
2021/03/02 07:47:56;;;;;;;11.48;8.18;;;7.90;87.20;;;;;;5080093;28;20036;-75
2021/03/02 07:50:30;;;;;;;11.60;8.00;;;8.00;86.90;;;;;;5071763;28;20035;-76
2021/03/02 07:53:19;;;;;;;12.68;8.95;;;8.20;86.60;;;;;;5072535;28;20049;-76
2021/03/02 07:55:45;;;;;;;10.93;8.25;;;8.20;85.80;;;;;;5072825;28;20367;-75
2021/03/02 07:58:14;;;;;;;13.25;8.48;;;8.00;87.40;;;;;;5071955;28;20037;-76
2021/03/02 08:00:41;;;;;;;13.13;8.00;;;8.40;86.90;;;;;;5072378;28;20040;-76
2021/03/02 08:03:20;;;;;;;10.75;7.75;;;8.30;86.60;;;;;;5072243;28;20048;-75
2021/03/02 08:05:54;;;;;;;11.13;8.60;;;9.00;84.20;;;;;;5072352;28;20036;-76
2021/03/02 08:08:23;;;;;;;12.60;9.77;;;9.50;83.20;;;;;;5071664;28;20041;-76
2021/03/02 08:10:53;;;;;;;13.38;8.90;;;9.50;81.30;;;;;;5080329;28;20029;-75
2021/03/02 08:13:39;;;;;;;14.77;11.38;;;9.70;81.10;;;;;;5080210;28;20107;-75
2021/03/02 08:16:07;;;;;;;13.30;9.70;;;9.00;82.40;;;;;;5071961;28;20036;-76
2021/03/02 08:18:38;;;;;;;12.95;8.48;;;9.20;83.20;;;;;;5085452;28;20032;-76
2021/03/02 08:21:04;;;;;;;12.18;7.90;;;9.60;81.40;;;;;;5072912;28;20454;-76
2021/03/02 08:23:56;;;;;;;11.02;8.45;;;9.80;80.50;;;;;;5092378;28;20028;-75
2021/03/02 08:26:33;;;;;;;11.38;8.50;;;10.80;78.10;;;;;;5072217;28;20389;-76
2021/03/02 08:29:07;;;;;;;12.15;8.52;;;11.10;75.80;;;;;;5090751;28;20036;-76
2021/03/02 08:31:34;;;;;;;11.63;8.68;;;11.60;74.70;;;;;;5072184;28;20361;-76
2021/03/02 08:34:03;;;;;;;15.45;9.23;;;12.10;71.80;;;;;;5072367;28;20040;-76
2021/03/02 08:36:30;;;;;;;13.65;9.13;;;12.00;70.40;;;;;;5072464;28;20028;-76
2021/03/02 08:38:56;;;;;;;12.23;8.07;;;11.90;70.90;;;;;;5073723;28;20047;-76
2021/03/02 08:41:30;;;;;;;12.25;9.80;;;11.50;71.50;;;;;;5074827;28;20025;-76
2021/03/02 08:43:57;;;;;;;12.93;9.40;;;11.20;72.80;;;;;;5095990;28;20389;-76
2021/03/02 08:46:26;;;;;;;13.48;8.93;;;11.10;72.50;;;;;;5080754;28;20032;-76
2021/03/02 08:48:53;;;;;;;15.80;11.02;;;11.10;72.60;;;;;;5075696;28;20044;-76
2021/03/02 08:51:21;;;;;;;13.52;9.60;;;11.10;72.70;;;;;;5075264;28;20389;-76
2021/03/02 08:53:49;;;;;;;13.00;9.63;;;11.50;72.60;;;;;;5084571;28;20130;-76
2021/03/02 08:56:22;;;;;;;14.50;9.65;;;11.40;71.90;;;;;;5083408;28;20028;-76
2021/03/02 08:58:51;;;;;;;13.25;10.02;;;12.20;69.70;;;;;;5089929;28;20384;-76
2021/03/02 09:01:23;;;;;;;14.30;10.98;;;12.60;67.00;;;;;;5074595;28;20035;-76
2021/03/02 09:03:51;;;;;;;14.02;10.40;;;11.60;70.00;;;;;;5075782;28;20401;-76
2021/03/02 09:06:26;;;;;;;15.02;11.55;;;11.60;70.40;;;;;;5075002;28;20040;-76
2021/03/02 09:09:10;;;;;;;17.63;10.85;;;11.90;69.70;;;;;;5073606;28;20064;-76
2021/03/02 09:11:42;;;;;;;18.77;11.82;;;12.50;68.30;;;;;;5076160;28;20044;-76
2021/03/02 09:14:22;;;;;;;18.73;12.23;;;13.10;65.70;;;;;;5074188;28;20033;-76
2021/03/02 09:16:49;;;;;;;15.97;11.60;;;13.40;64.10;;;;;;5074663;28;20067;-77
2021/03/02 09:19:32;;;;;;;17.23;11.20;;;12.20;66.30;;;;;;5074935;28;20294;-74
2021/03/02 09:22:10;;;;;;;14.50;10.73;;;11.80;68.10;;;;;;5074815;28;20037;-75
2021/03/02 09:24:39;;;;;;;15.82;11.77;;;11.70;68.50;;;;;;5075225;28;20029;-76
2021/03/02 09:27:09;;;;;;;14.57;10.95;;;13.10;67.70;;;;;;5083941;28;20036;-77
2021/03/02 09:29:50;;;;;;;14.45;10.82;;;14.40;63.40;;;;;;5074758;28;20480;-77
2021/03/02 09:32:28;;;;;;;15.27;11.02;;;14.30;61.20;;;;;;5074115;28;20506;-77
2021/03/02 09:35:00;;;;;;;14.10;10.43;;;13.90;59.80;;;;;;5074566;28;20052;-74
2021/03/02 09:37:27;;;;;;;16.70;11.73;;;12.80;62.30;;;;;;5073774;28;20474;-76
2021/03/02 09:39:57;;;;;;;15.93;11.70;;;13.50;60.80;;;;;;5074270;28;20474;-77
2021/03/02 09:42:28;;;;;;;16.17;11.85;;;13.20;61.30;;;;;;5074204;28;20033;-76
2021/03/02 09:44:57;;;;;;;17.15;13.48;;;12.60;63.30;;;;;;5086442;28;20035;-75
2021/03/02 09:47:31;;;;;;;19.77;12.88;;;12.00;65.00;;;;;;5074116;28;20204;-75
2021/03/02 09:50:01;;;;;;;13.77;11.07;;;12.60;64.30;;;;;;5074657;28;20032;-75
2021/03/02 09:52:46;;;;;;;16.95;12.63;;;13.40;62.00;;;;;;5073432;28;20373;-75
2021/03/02 09:55:23;;;;;;;19.23;12.75;;;14.20;60.10;;;;;;5073552;28;20044;-75
2021/03/02 10:00:44;;;;;;;17.67;11.80;;;12.40;61.90;;;;;;5073818;28;20059;-74
2021/03/02 10:03:13;;;;;;;18.00;12.90;;;11.90;65.50;;;;;;5086975;28;20035;-74
2021/03/02 10:05:44;;;;;;;19.40;11.52;;;11.70;64.70;;;;;;5080975;28;20067;-74
2021/03/02 10:08:31;;;;;;;20.50;10.90;;;11.30;64.50;;;;;;5073460;28;20052;-74
2021/03/02 10:11:00;;;;;;;18.17;12.48;;;11.50;65.70;;;;;;5084552;28;20039;-75
2021/03/02 10:13:35;;;;;;;17.05;11.05;;;11.50;65.90;;;;;;5082453;28;20043;-76
2021/03/02 10:16:48;;;;;;;14.82;11.50;;;11.80;63.60;;;;;;5073986;28;20036;-76
2021/03/02 10:19:17;;;;;;;18.10;11.80;;;11.50;63.80;;;;;;5010977;28;20037;-75
2021/03/02 10:21:46;;;;;;;17.20;12.32;;;11.10;65.20;;;;;;5080912;28;20047;-75
2021/03/02 10:24:23;;;;;;;23.98;14.40;;;10.80;66.00;;;;;;5075744;28;20373;-76
2021/03/02 10:26:50;;;;;;;32.60;26.17;;;10.70;66.30;;;;;;5078654;28;20043;-75
2021/03/02 10:29:16;;;;;;;25.33;14.73;;;10.70;66.20;;;;;;5086778;28;20033;-75
2021/03/02 10:31:43;;;;;;;18.50;11.27;;;10.80;66.30;;;;;;5080720;28;20036;-75
2021/03/02 10:34:11;;;;;;;21.90;13.30;;;10.90;66.20;;;;;;5087687;28;20032;-75
2021/03/02 10:36:40;;;;;;;18.52;11.95;;;10.80;67.70;;;;;;5080519;28;20024;-76
2021/03/02 10:39:15;;;;;;;20.63;11.50;;;11.00;67.70;;;;;;5082795;28;20044;-75
2021/03/02 10:41:43;;;;;;;17.98;12.32;;;11.20;67.10;;;;;;5073624;28;20041;-75
2021/03/02 10:44:10;;;;;;;20.73;11.95;;;11.20;66.20;;;;;;5077259;28;20032;-75
2021/03/02 10:46:37;;;;;;;22.88;12.00;;;10.90;67.50;;;;;;5090601;28;20047;-75
2021/03/02 10:49:05;;;;;;;21.13;13.20;;;11.10;67.30;;;;;;5073397;28;20043;-75
2021/03/02 10:51:32;;;;;;;20.95;13.90;;;11.40;66.00;;;;;;5073354;28;20036;-75
2021/03/02 10:53:59;;;;;;;21.80;12.88;;;11.60;65.90;;;;;;5073509;28;20139;-75
2021/03/02 10:56:26;;;;;;;21.83;12.90;;;11.80;65.50;;;;;;5072503;28;20037;-75
2021/03/02 10:58:52;;;;;;;20.55;12.10;;;11.80;64.20;;;;;;5072641;28;20043;-74
2021/03/02 11:01:20;;;;;;;18.73;12.63;;;11.40;64.70;;;;;;5092726;28;20412;-75
2021/03/02 11:03:47;;;;;;;27.00;13.10;;;11.40;65.60;;;;;;5080893;28;20462;-76
2021/03/02 11:06:14;;;;;;;21.92;13.63;;;11.30;65.80;;;;;;5071868;28;20032;-75
2021/03/02 11:08:43;;;;;;;19.73;11.57;;;11.60;65.60;;;;;;5075260;28;20492;-75
2021/03/02 11:11:11;;;;;;;22.25;13.77;;;12.00;64.90;;;;;;5088921;28;20120;-74
2021/03/02 11:13:38;;;;;;;20.13;12.73;;;12.20;63.80;;;;;;5072341;28;20040;-74
2021/03/02 11:16:05;;;;;;;22.10;13.02;;;12.00;63.50;;;;;;5073082;28;20029;-75
2021/03/02 11:18:31;;;;;;;21.05;12.88;;;12.00;64.10;;;;;;5082419;28;20044;-75
2021/03/02 11:20:58;;;;;;;17.45;12.40;;;12.20;63.80;;;;;;5072630;28;20036;-75
2021/03/02 11:23:24;;;;;;;18.33;11.45;;;12.20;63.50;;;;;;5072227;28;20035;-75
2021/03/02 11:25:51;;;;;;;19.67;12.70;;;12.20;63.50;;;;;;5088902;28;20028;-75
2021/03/02 11:28:17;;;;;;;20.88;12.48;;;12.20;64.30;;;;;;5073458;28;20043;-75
2021/03/02 11:30:44;;;;;;;20.65;12.43;;;12.40;63.60;;;;;;5072384;28;20040;-75
2021/03/02 11:33:11;;;;;;;18.52;13.25;;;12.50;63.40;;;;;;5092365;28;20393;-76
2021/03/02 11:35:38;;;;;;;19.73;12.23;;;12.50;62.70;;;;;;5073265;28;20045;-75
2021/03/02 11:38:05;;;;;;;19.98;12.43;;;12.60;63.10;;;;;;5072012;28;20047;-75
2021/03/02 11:40:31;;;;;;;20.48;12.70;;;12.40;63.30;;;;;;5072486;28;20040;-74
2021/03/02 11:42:58;;;;;;;18.20;12.50;;;12.50;63.50;;;;;;5072465;28;20033;-76
2021/03/02 11:45:27;;;;;;;20.67;14.02;;;12.70;62.70;;;;;;5072421;28;20032;-76
2021/03/02 11:47:54;;;;;;;20.75;12.25;;;12.60;62.80;;;;;;5072523;28;20389;-75
2021/03/02 11:50:21;;;;;;;20.58;13.82;;;12.70;62.70;;;;;;5072750;28;20056;-76
2021/03/02 11:52:48;;;;;;;24.38;13.82;;;12.90;62.60;;;;;;5072547;28;20043;-75
2021/03/02 11:55:15;;;;;;;20.40;13.40;;;12.70;62.50;;;;;;5071824;28;20035;-76
2021/03/02 11:57:43;;;;;;;21.25;13.68;;;13.00;62.50;;;;;;5072617;28;20032;-75
2021/03/02 12:00:13;;;;;;;21.02;13.43;;;12.80;62.30;;;;;;5072308;28;20028;-75
2021/03/02 12:02:40;;;;;;;22.40;14.07;;;12.70;62.60;;;;;;5071875;28;20037;-75
2021/03/02 12:05:07;;;;;;;17.48;12.63;;;12.70;62.80;;;;;;5072285;28;20127;-75
2021/03/02 12:07:36;;;;;;;21.48;13.75;;;12.80;63.20;;;;;;5071802;28;20037;-74
2021/03/02 12:10:07;;;;;;;21.17;13.57;;;12.90;62.40;;;;;;5072075;28;20025;-76
2021/03/02 12:12:33;;;;;;;19.33;12.82;;;12.90;62.40;;;;;;5072422;28;20040;-75
2021/03/02 12:15:01;;;;;;;27.02;13.27;;;13.10;62.70;;;;;;5073018;28;20037;-75
2021/03/02 12:17:27;;;;;;;21.77;13.07;;;13.50;61.60;;;;;;5096034;28;20036;-75
2021/03/02 12:19:53;;;;;;;18.25;12.85;;;13.50;60.80;;;;;;5078456;28;20040;-75
2021/03/02 12:22:19;;;;;;;21.02;12.85;;;13.50;61.40;;;;;;5083564;28;20028;-75
2021/03/02 12:24:46;;;;;;;22.40;12.73;;;13.40;61.40;;;;;;5078294;28;20033;-75
2021/03/02 12:27:12;;;;;;;19.73;12.18;;;13.50;60.60;;;;;;5091029;28;20021;-75
2021/03/02 12:29:38;;;;;;;17.88;12.43;;;13.60;60.80;;;;;;5075732;28;20029;-75
2021/03/02 12:32:05;;;;;;;17.65;11.95;;;13.60;59.90;;;;;;5075924;28;20040;-75
2021/03/02 12:34:31;;;;;;;19.83;12.20;;;13.70;60.50;;;;;;5087150;28;20032;-75
2021/03/02 12:36:57;;;;;;;19.27;12.75;;;13.70;60.30;;;;;;5075744;28;20500;-76
2021/03/02 12:39:24;;;;;;;19.10;11.90;;;13.80;59.50;;;;;;5075450;28;20052;-76
2021/03/02 12:41:50;;;;;;;19.35;12.50;;;13.80;59.70;;;;;;5075297;28;20044;-76
2021/03/02 12:44:16;;;;;;;22.52;13.32;;;13.80;59.70;;;;;;5092733;28;20036;-76
2021/03/02 12:46:43;;;;;;;17.67;12.27;;;13.80;59.20;;;;;;5075835;28;20036;-76
2021/03/02 12:49:09;;;;;;;22.38;12.40;;;13.80;59.50;;;;;;5075163;28;20040;-75